createdAt,value
2023-12-14T00:00:29.593Z,20.21
2023-12-14T00:02:57.632Z,20.23
2023-12-14T00:05:25.416Z,20.23
2023-12-14T00:07:53.185Z,20.25
2023-12-14T00:10:21.431Z,20.23
2023-12-14T00:12:52.517Z,20.24
2023-12-14T00:15:20.231Z,20.24
2023-12-14T00:17:48.116Z,20.24
2023-12-14T00:20:16.429Z,20.28
2023-12-14T00:22:44.472Z,20.28
2023-12-14T00:25:12.442Z,20.28
2023-12-14T00:27:43.119Z,20.31
2023-12-14T00:30:14.597Z,20.33
2023-12-14T00:32:42.753Z,20.33
2023-12-14T00:35:10.601Z,20.34
2023-12-14T00:37:38.318Z,20.32
2023-12-14T00:40:07.442Z,20.32
2023-12-14T00:42:35.722Z,20.31
2023-12-14T00:45:03.936Z,20.31
2023-12-14T00:47:34.931Z,20.36
2023-12-14T00:50:03.048Z,20.33
2023-12-14T00:52:30.822Z,20.39
2023-12-14T00:54:58.724Z,20.38
2023-12-14T00:57:26.915Z,20.41
2023-12-14T00:59:55.735Z,20.37
2023-12-14T01:02:23.885Z,20.40
2023-12-14T01:04:54.281Z,20.42
2023-12-14T01:07:22.383Z,20.42
2023-12-14T01:09:50.629Z,20.42
2023-12-14T01:12:18.565Z,20.43
2023-12-14T01:14:46.436Z,20.44
2023-12-14T01:17:14.460Z,20.46
2023-12-14T01:19:42.950Z,20.49
2023-12-14T01:22:13.740Z,20.50
2023-12-14T01:24:41.854Z,20.54
2023-12-14T01:27:11.688Z,20.52
2023-12-14T01:29:42.797Z,20.52
2023-12-14T01:32:10.791Z,20.53
2023-12-14T01:34:38.914Z,20.56
2023-12-14T01:37:06.905Z,20.56
2023-12-14T01:39:39.859Z,20.59
2023-12-14T01:42:08.708Z,20.60
2023-12-14T01:44:36.702Z,20.61
2023-12-14T01:47:04.848Z,20.61
2023-12-14T01:49:32.904Z,20.62
2023-12-14T01:52:00.984Z,20.65
2023-12-14T01:54:28.969Z,20.67
2023-12-14T01:56:59.459Z,20.67
2023-12-14T01:59:27.564Z,20.68
2023-12-14T02:01:58.214Z,20.69
2023-12-14T02:04:32.396Z,20.68
2023-12-14T02:07:00.351Z,20.69
2023-12-14T02:09:28.428Z,20.71
2023-12-14T02:11:59.049Z,20.73
2023-12-14T02:14:27.126Z,20.73
2023-12-14T02:16:55.128Z,20.76
2023-12-14T02:19:23.172Z,20.78
2023-12-14T02:21:51.149Z,20.79
2023-12-14T02:24:21.709Z,20.80
2023-12-14T02:27:02.202Z,20.78
2023-12-14T02:29:32.505Z,20.79
2023-12-14T02:32:00.457Z,20.81
2023-12-14T02:34:28.813Z,20.82
2023-12-14T02:36:56.538Z,20.82
2023-12-14T02:39:27.240Z,20.83
2023-12-14T02:41:55.020Z,20.78
2023-12-14T02:44:23.001Z,20.84
2023-12-14T02:46:50.808Z,20.83
2023-12-14T02:49:19.505Z,20.84
2023-12-14T02:51:47.571Z,20.86
2023-12-14T02:54:15.545Z,20.88
2023-12-14T02:56:46.124Z,20.90
2023-12-14T02:59:14.076Z,20.88
2023-12-14T03:01:42.116Z,20.91
2023-12-14T03:04:11.799Z,20.91
2023-12-14T03:06:39.601Z,20.89
2023-12-14T03:09:07.693Z,20.88
2023-12-14T03:11:35.432Z,20.88
2023-12-14T03:14:05.949Z,20.87
2023-12-14T03:16:33.982Z,20.87
2023-12-14T03:19:01.908Z,20.89
2023-12-14T03:21:29.776Z,20.90
2023-12-14T03:23:57.737Z,20.89
2023-12-14T03:26:29.638Z,20.91
2023-12-14T03:28:59.378Z,20.91
2023-12-14T03:31:30.016Z,20.90
2023-12-14T03:33:58.189Z,20.91
2023-12-14T03:36:27.894Z,20.92
2023-12-14T03:38:55.901Z,20.94
2023-12-14T03:41:23.704Z,20.91
2023-12-14T03:43:51.337Z,20.92
2023-12-14T03:46:19.127Z,20.94
2023-12-14T03:48:49.713Z,20.98
2023-12-14T03:51:20.283Z,20.97
2023-12-14T03:53:48.123Z,20.96
2023-12-14T03:56:16.683Z,20.96
2023-12-14T03:58:44.420Z,20.97
2023-12-14T04:01:18.387Z,20.95
2023-12-14T04:03:49.684Z,20.98
2023-12-14T04:06:18.121Z,21.03
2023-12-14T04:08:46.407Z,21.01
2023-12-14T04:11:15.035Z,21.01
2023-12-14T04:13:43.052Z,21.03
2023-12-14T04:16:10.810Z,21.03
2023-12-14T04:18:39.177Z,21.04
2023-12-14T04:21:09.841Z,21.06
2023-12-14T04:23:37.693Z,21.09
2023-12-14T04:26:05.994Z,21.09
2023-12-14T04:28:34.093Z,21.09
2023-12-14T04:31:02.284Z,21.07
2023-12-14T04:33:30.290Z,21.08
2023-12-14T04:35:58.204Z,21.10
2023-12-14T04:38:31.105Z,21.11
2023-12-14T04:40:58.787Z,21.11
2023-12-14T04:43:26.426Z,21.13
2023-12-14T04:45:54.041Z,21.14
2023-12-14T04:48:21.743Z,21.14
2023-12-14T04:50:49.511Z,21.13
2023-12-14T04:53:17.225Z,21.17
2023-12-14T04:55:47.692Z,21.13
2023-12-14T04:58:15.384Z,21.17
2023-12-14T05:00:43.134Z,21.20
2023-12-14T05:03:10.696Z,21.20
2023-12-14T05:05:40.753Z,21.16
2023-12-14T05:08:08.686Z,21.19
2023-12-14T05:10:37.344Z,21.17
2023-12-14T05:13:08.082Z,21.20
2023-12-14T05:15:35.962Z,21.20
2023-12-14T05:18:04.228Z,21.26
2023-12-14T05:20:33.274Z,21.25
2023-12-14T05:23:01.147Z,21.27
2023-12-14T05:25:29.127Z,21.27
2023-12-14T05:27:57.083Z,21.29
2023-12-14T05:30:29.740Z,21.31
2023-12-14T05:32:57.620Z,21.30
2023-12-14T05:35:25.571Z,21.33
2023-12-14T05:37:53.343Z,21.34
2023-12-14T05:40:21.285Z,21.32
2023-12-14T05:42:48.842Z,21.32
2023-12-14T05:45:16.862Z,21.29
2023-12-14T05:47:47.313Z,21.36
2023-12-14T05:50:15.169Z,21.36
2023-12-14T05:52:43.040Z,21.36
2023-12-14T05:55:14.007Z,21.38
2023-12-14T05:57:41.858Z,21.36
2023-12-14T06:00:10.429Z,21.39
2023-12-14T06:02:39.375Z,21.36
2023-12-14T06:05:10.660Z,21.36
2023-12-14T06:07:39.122Z,21.36
2023-12-14T06:10:08.284Z,21.33
2023-12-14T06:12:36.437Z,21.35
2023-12-14T06:15:04.817Z,21.35
2023-12-14T06:17:34.088Z,21.40
2023-12-14T06:20:02.014Z,21.32
2023-12-14T06:22:32.285Z,21.36
2023-12-14T06:25:00.109Z,21.34
2023-12-14T06:27:28.047Z,21.31
2023-12-14T06:29:55.643Z,21.35
2023-12-14T06:32:23.093Z,21.32
2023-12-14T06:34:56.062Z,21.29
2023-12-14T06:37:23.915Z,21.30
2023-12-14T06:39:54.383Z,21.30
2023-12-14T06:42:22.834Z,21.26
2023-12-14T06:44:50.891Z,21.31
2023-12-14T06:47:18.517Z,21.28
2023-12-14T06:49:46.455Z,21.30
2023-12-14T06:52:14.462Z,21.27
2023-12-14T06:54:42.426Z,21.10
2023-12-14T06:57:12.626Z,20.92
2023-12-14T06:59:40.406Z,20.89
2023-12-14T07:02:08.866Z,20.87
2023-12-14T07:04:36.656Z,20.94
2023-12-14T07:07:04.902Z,20.91
2023-12-14T07:09:32.686Z,20.90
2023-12-14T07:12:02.906Z,20.92
2023-12-14T07:14:33.594Z,20.87
2023-12-14T07:17:01.457Z,20.86
2023-12-14T07:19:32.220Z,20.78
2023-12-14T07:22:00.089Z,20.91
2023-12-14T07:24:28.615Z,20.92
2023-12-14T07:26:57.287Z,20.89
2023-12-14T07:29:24.750Z,20.98
2023-12-14T07:31:55.098Z,20.96
2023-12-14T07:34:22.909Z,20.91
2023-12-14T07:36:50.822Z,20.89
2023-12-14T07:39:18.690Z,20.86
2023-12-14T07:41:46.464Z,20.86
2023-12-14T07:44:14.226Z,20.89
2023-12-14T07:46:44.056Z,20.88
2023-12-14T07:49:14.582Z,20.91
2023-12-14T07:51:42.496Z,20.88
2023-12-14T07:54:10.150Z,20.86
2023-12-14T07:56:37.897Z,20.84
2023-12-14T07:59:08.262Z,20.84
2023-12-14T08:01:36.025Z,20.89
2023-12-14T08:04:05.458Z,20.90
2023-12-14T08:06:36.138Z,20.71
2023-12-14T08:09:05.097Z,20.81
2023-12-14T08:11:32.714Z,20.81
2023-12-14T08:14:00.742Z,20.86
2023-12-14T08:16:29.053Z,20.95
2023-12-14T08:18:57.028Z,20.86
2023-12-14T08:21:25.434Z,20.82
2023-12-14T08:23:55.679Z,20.83
2023-12-14T08:26:23.499Z,20.85
2023-12-14T08:28:51.466Z,20.80
2023-12-14T08:31:19.373Z,20.78
2023-12-14T08:33:49.358Z,20.79
2023-12-14T08:36:18.539Z,20.75
2023-12-14T08:38:46.340Z,20.81
2023-12-14T08:41:17.226Z,20.79
2023-12-14T08:43:45.635Z,20.76
2023-12-14T08:46:13.358Z,20.71
2023-12-14T08:48:43.798Z,20.73
2023-12-14T08:51:13.540Z,20.73
2023-12-14T08:53:41.372Z,20.89
2023-12-14T08:56:10.717Z,20.77
2023-12-14T08:58:43.708Z,20.57
2023-12-14T09:01:11.426Z,20.66
2023-12-14T09:03:39.092Z,20.67
2023-12-14T09:06:07.384Z,20.10
2023-12-14T09:08:35.454Z,20.04
2023-12-14T09:11:04.092Z,20.41
2023-12-14T09:13:32.543Z,20.50
2023-12-14T09:16:03.145Z,20.50
2023-12-14T09:18:32.041Z,20.55
2023-12-14T09:21:00.017Z,20.51
2023-12-14T09:23:27.835Z,20.61
2023-12-14T09:25:57.772Z,20.60
2023-12-14T09:28:26.374Z,20.66
2023-12-14T09:30:54.094Z,20.63
2023-12-14T09:33:24.712Z,20.55
2023-12-14T09:35:52.734Z,20.51
2023-12-14T09:38:21.001Z,20.56
2023-12-14T09:40:49.107Z,20.56
2023-12-14T09:43:16.751Z,20.54
2023-12-14T09:45:46.718Z,20.55
2023-12-14T09:48:17.160Z,20.57
2023-12-14T09:50:48.077Z,20.61
2023-12-14T09:53:16.290Z,20.58
2023-12-14T09:55:44.288Z,20.59
2023-12-14T09:58:13.086Z,20.65
2023-12-14T10:00:43.025Z,20.62
2023-12-14T10:03:22.615Z,20.58
2023-12-14T10:05:53.600Z,20.59
2023-12-14T10:08:22.033Z,20.60
2023-12-14T10:10:52.791Z,20.64
2023-12-14T10:13:20.866Z,20.59
2023-12-14T10:15:51.999Z,20.58
2023-12-14T10:18:26.788Z,20.67
2023-12-14T10:20:58.377Z,20.53
2023-12-14T10:23:26.534Z,20.66
2023-12-14T10:25:54.793Z,20.60
2023-12-14T10:28:23.725Z,20.62
2023-12-14T10:30:52.736Z,20.59
2023-12-14T10:33:22.512Z,20.63
2023-12-14T10:35:51.328Z,20.68
2023-12-14T10:38:22.222Z,20.68
2023-12-14T10:40:52.904Z,20.71
2023-12-14T10:43:45.350Z,20.71
2023-12-14T10:46:12.856Z,20.76
2023-12-14T10:48:45.596Z,20.73
2023-12-14T10:51:14.655Z,20.69
2023-12-14T10:53:51.038Z,20.68
2023-12-14T10:56:20.187Z,20.67
2023-12-14T10:58:50.270Z,20.69
2023-12-14T11:01:20.325Z,20.66
2023-12-14T11:03:49.278Z,20.69
2023-12-14T11:06:32.961Z,20.68
2023-12-14T11:09:09.697Z,20.71
2023-12-14T11:11:45.292Z,20.72
2023-12-14T11:14:21.630Z,20.72
2023-12-14T11:16:51.159Z,20.79
2023-12-14T11:19:37.926Z,20.74
2023-12-14T11:22:28.988Z,20.75
2023-12-14T11:24:59.820Z,20.76
2023-12-14T11:27:29.779Z,20.77
2023-12-14T11:29:58.441Z,20.72
2023-12-14T11:32:27.235Z,20.82
2023-12-14T11:34:56.594Z,20.81
2023-12-14T11:37:24.538Z,20.80
2023-12-14T11:39:53.460Z,20.86
2023-12-14T11:42:24.033Z,20.95
2023-12-14T11:44:51.812Z,20.82
2023-12-14T11:47:19.430Z,20.93
2023-12-14T11:49:47.298Z,20.85
2023-12-14T11:52:15.045Z,20.90
2023-12-14T12:08:02.536Z,4.42
2023-12-14T12:10:30.810Z,3.74
2023-12-14T12:13:02.052Z,3.16
2023-12-14T12:15:30.068Z,2.98
2023-12-14T12:17:57.923Z,2.63
2023-12-14T12:20:27.544Z,2.25
2023-12-14T12:22:55.881Z,2.07
2023-12-14T12:25:28.423Z,1.89
2023-12-14T12:27:57.074Z,1.66
2023-12-14T12:30:25.123Z,1.54
2023-12-14T12:32:53.488Z,1.81
2023-12-14T12:35:21.930Z,1.65
2023-12-14T12:37:55.224Z,1.72
2023-12-14T12:40:31.546Z,1.71
2023-12-14T12:42:59.440Z,1.61
2023-12-14T12:45:29.667Z,1.55
2023-12-14T12:47:58.625Z,1.60
2023-12-14T12:50:26.724Z,1.56
2023-12-14T12:52:54.930Z,1.49
2023-12-14T12:55:22.623Z,1.53
2023-12-14T12:57:53.234Z,1.41
2023-12-14T13:00:21.412Z,1.42
2023-12-14T13:02:49.172Z,1.39
2023-12-14T13:05:18.695Z,1.54
2023-12-14T13:07:48.835Z,1.43
2023-12-14T13:10:28.274Z,1.44
2023-12-14T13:13:01.765Z,1.50
2023-12-14T13:15:32.425Z,1.39
2023-12-14T13:18:00.372Z,1.40
2023-12-14T13:20:28.513Z,1.45
2023-12-14T13:22:56.617Z,1.34
2023-12-14T13:25:27.758Z,1.26
2023-12-14T13:27:55.721Z,1.27
2023-12-14T13:30:26.068Z,1.18
2023-12-14T13:32:55.612Z,1.24
2023-12-14T13:35:26.149Z,1.34
2023-12-14T13:37:54.197Z,1.25
2023-12-14T13:40:22.205Z,1.20
2023-12-14T13:42:59.427Z,1.20
2023-12-14T13:45:35.350Z,1.19
2023-12-14T13:48:03.314Z,1.22
2023-12-14T13:50:31.294Z,1.16
2023-12-14T13:52:59.617Z,1.21
2023-12-14T13:55:27.574Z,1.18
2023-12-14T13:57:59.478Z,1.16
2023-12-14T14:00:27.430Z,1.16
2023-12-14T14:02:58.289Z,1.11
2023-12-14T14:05:26.117Z,1.16
2023-12-14T14:07:54.025Z,1.12
2023-12-14T14:10:21.740Z,1.09
2023-12-14T14:12:49.553Z,1.12
2023-12-14T14:15:17.347Z,1.24
2023-12-14T14:17:45.286Z,1.15
2023-12-14T14:20:16.258Z,1.13
2023-12-14T14:22:44.307Z,1.14
2023-12-14T14:25:12.082Z,1.08
2023-12-14T14:27:42.009Z,1.15
2023-12-14T14:30:11.022Z,1.20
2023-12-14T14:32:39.677Z,1.16
2023-12-14T14:35:08.727Z,1.17
2023-12-14T14:37:39.130Z,1.23
2023-12-14T14:40:08.576Z,1.09
2023-12-14T14:42:37.164Z,1.14
2023-12-14T14:45:09.728Z,1.05
2023-12-14T14:47:38.672Z,1.05
2023-12-14T14:50:08.695Z,1.06
2023-12-14T14:52:39.720Z,1.13
2023-12-14T14:55:08.470Z,1.13
2023-12-14T14:57:36.273Z,1.04
2023-12-14T15:00:05.355Z,1.17
2023-12-14T15:02:33.203Z,1.14
2023-12-14T15:05:01.255Z,1.03
2023-12-14T15:07:30.509Z,1.07
2023-12-14T15:10:00.967Z,1.09
2023-12-14T15:12:28.707Z,1.07
2023-12-14T15:14:57.456Z,1.06
2023-12-14T15:17:25.483Z,1.11
2023-12-14T15:19:53.208Z,1.15
2023-12-14T15:22:21.720Z,1.07
2023-12-14T15:24:50.162Z,1.12
2023-12-14T15:27:20.339Z,0.97
2023-12-14T15:29:47.922Z,0.95
2023-12-14T15:32:16.298Z,0.99
2023-12-14T15:34:44.109Z,0.92
2023-12-14T15:37:11.863Z,1.00
2023-12-14T15:39:39.409Z,1.06
2023-12-14T15:42:07.737Z,1.00
2023-12-14T15:44:37.990Z,0.92
2023-12-14T15:47:06.191Z,0.90
2023-12-14T15:49:33.839Z,0.90
2023-12-14T15:52:01.520Z,0.86
2023-12-14T15:54:29.416Z,0.90
2023-12-14T15:56:57.222Z,0.84
2023-12-14T15:59:25.283Z,0.79
2023-12-14T16:01:56.111Z,0.83
2023-12-14T16:04:23.733Z,0.79
2023-12-14T16:06:51.640Z,0.78
2023-12-14T16:09:19.549Z,0.81
2023-12-14T16:11:47.462Z,0.70
2023-12-14T16:14:15.557Z,0.79
2023-12-14T16:16:43.921Z,0.76
2023-12-14T16:19:14.651Z,0.72
2023-12-14T16:21:42.334Z,0.74
2023-12-14T16:24:10.086Z,0.77
2023-12-14T16:26:40.470Z,0.73
2023-12-14T16:29:08.375Z,0.76
2023-12-14T16:31:42.346Z,0.82
2023-12-14T16:34:10.308Z,0.81
2023-12-14T16:36:43.213Z,0.82
2023-12-14T16:39:13.046Z,0.82
2023-12-14T16:41:42.217Z,0.82
2023-12-14T16:44:11.437Z,0.83
2023-12-14T16:46:39.622Z,0.79
2023-12-14T16:49:07.488Z,0.75
2023-12-14T16:51:35.605Z,0.82
2023-12-14T16:54:06.320Z,0.74
2023-12-14T16:56:34.500Z,0.72
2023-12-14T16:59:02.266Z,0.69
2023-12-14T17:01:30.029Z,0.76
2023-12-14T17:03:58.785Z,0.77
2023-12-14T17:06:26.540Z,0.75
2023-12-14T17:08:54.769Z,0.80
2023-12-14T17:11:25.371Z,0.78
2023-12-14T17:13:53.161Z,0.82
2023-12-14T17:16:21.869Z,0.76
2023-12-14T17:18:49.878Z,0.73
2023-12-14T17:21:19.449Z,0.67
2023-12-14T17:23:48.207Z,0.75
2023-12-14T17:26:17.164Z,0.78
2023-12-14T17:28:49.533Z,0.63
2023-12-14T17:31:18.999Z,0.66
2023-12-14T17:33:47.895Z,0.68
2023-12-14T17:36:15.828Z,0.75
2023-12-14T17:38:44.437Z,0.73
2023-12-14T17:41:13.938Z,0.68
2023-12-14T17:43:42.310Z,0.66
2023-12-14T17:46:14.240Z,0.71
2023-12-14T17:48:42.335Z,0.70
2023-12-14T17:51:10.277Z,0.71
2023-12-14T17:53:43.338Z,0.63
2023-12-14T17:56:11.668Z,0.67
2023-12-14T17:58:39.688Z,0.61
2023-12-14T18:01:07.807Z,0.68
2023-12-14T18:03:38.532Z,0.82
2023-12-14T18:06:11.615Z,0.62
2023-12-14T18:08:39.614Z,0.63
2023-12-14T18:11:08.129Z,0.75
2023-12-14T18:13:36.033Z,0.75
2023-12-14T18:16:04.520Z,0.72
2023-12-14T18:18:32.666Z,0.83
2023-12-14T18:21:05.138Z,0.73
2023-12-14T18:23:33.385Z,0.67
2023-12-14T18:26:01.513Z,0.67
2023-12-14T18:28:29.843Z,0.62
2023-12-14T18:30:58.209Z,0.72
2023-12-14T18:33:26.544Z,0.64
2023-12-14T18:35:55.307Z,0.66
2023-12-14T18:38:26.294Z,0.73
2023-12-14T18:40:54.699Z,0.73
2023-12-14T18:43:22.791Z,0.78
2023-12-14T18:45:50.648Z,0.81
2023-12-14T18:48:18.797Z,0.82
2023-12-14T18:50:46.559Z,0.77
2023-12-14T18:53:14.547Z,0.70
2023-12-14T18:55:45.405Z,0.76
2023-12-14T18:58:13.795Z,0.70
2023-12-14T19:00:45.906Z,0.75
2023-12-14T19:03:14.446Z,0.86
2023-12-14T19:05:42.524Z,0.91
2023-12-14T19:08:10.611Z,0.93
2023-12-14T19:10:38.622Z,0.88
2023-12-14T19:13:12.111Z,0.85
2023-12-14T19:15:43.595Z,0.89
2023-12-14T19:18:12.649Z,0.87
2023-12-14T19:20:41.724Z,0.85
2023-12-14T19:23:09.932Z,0.84
2023-12-14T19:25:37.905Z,0.83
2023-12-14T19:28:08.857Z,0.85
2023-12-14T19:30:36.937Z,0.90
2023-12-14T19:33:05.002Z,0.84
2023-12-14T19:35:32.987Z,0.85
2023-12-14T19:38:01.008Z,0.88
2023-12-14T19:40:29.054Z,0.85
2023-12-14T19:42:57.241Z,0.73
2023-12-14T19:45:28.087Z,0.87
2023-12-14T19:47:58.273Z,0.85
2023-12-14T19:50:28.030Z,0.92
2023-12-14T19:52:56.143Z,0.87
2023-12-14T19:55:23.945Z,0.79
2023-12-14T19:57:53.096Z,0.85
2023-12-14T20:00:21.867Z,0.82
2023-12-14T20:02:52.422Z,0.74
2023-12-14T20:05:20.618Z,0.87
2023-12-14T20:07:48.915Z,0.89
2023-12-14T20:10:17.130Z,0.88
2023-12-14T20:12:45.358Z,0.78
2023-12-14T20:15:15.121Z,0.75
2023-12-14T20:17:43.561Z,0.68
2023-12-14T20:20:14.941Z,0.77
2023-12-14T20:22:42.844Z,0.78
2023-12-14T20:25:11.188Z,0.65
2023-12-14T20:27:39.495Z,0.83
2023-12-14T20:30:09.126Z,0.76
2023-12-14T20:32:37.510Z,0.81
2023-12-14T20:35:06.725Z,0.92
2023-12-14T20:37:37.460Z,0.82
2023-12-14T20:40:14.044Z,0.92
2023-12-14T20:42:42.397Z,0.94
2023-12-14T20:45:11.498Z,0.86
2023-12-14T20:47:39.668Z,0.71
2023-12-14T20:50:09.525Z,0.66
2023-12-14T20:52:43.358Z,0.81
2023-12-14T20:55:12.027Z,0.69
2023-12-14T20:57:40.551Z,0.57
2023-12-14T21:00:12.868Z,0.65
2023-12-14T21:02:43.760Z,0.63
2023-12-14T21:05:11.679Z,0.59
2023-12-14T21:07:42.321Z,0.67
2023-12-14T21:10:10.677Z,0.66
2023-12-14T21:12:38.635Z,0.78
2023-12-14T21:15:07.383Z,0.76
2023-12-14T21:17:36.551Z,0.72
2023-12-14T21:20:05.508Z,0.73
2023-12-14T21:22:33.542Z,0.54
2023-12-14T21:25:07.387Z,0.57
2023-12-14T21:27:48.031Z,0.59
2023-12-14T21:30:18.228Z,0.62
2023-12-14T21:32:47.158Z,0.62
2023-12-14T21:35:15.243Z,0.69
2023-12-14T21:37:43.412Z,0.72
2023-12-14T21:40:16.445Z,0.17
2023-12-14T21:42:44.367Z,0.39
2023-12-14T21:45:12.807Z,0.34
2023-12-14T21:47:44.268Z,0.01
2023-12-14T21:50:12.778Z,-0.09
2023-12-14T21:52:41.416Z,0.17
2023-12-14T21:55:09.960Z,0.17
2023-12-14T21:57:40.632Z,0.06
2023-12-14T22:00:09.921Z,0.10
2023-12-14T22:02:38.077Z,0.32
2023-12-14T22:05:06.752Z,0.42
2023-12-14T22:07:35.109Z,0.35
2023-12-14T22:10:04.702Z,0.17
2023-12-14T22:12:32.927Z,0.17
2023-12-14T22:15:03.645Z,0.18
2023-12-14T22:17:31.505Z,0.23
2023-12-14T22:19:59.342Z,0.22
2023-12-14T22:22:27.351Z,0.33
2023-12-14T22:24:55.394Z,0.45
2023-12-14T22:27:23.394Z,0.34
2023-12-14T22:29:51.259Z,0.35
2023-12-14T22:32:22.091Z,0.24
2023-12-14T22:34:50.181Z,0.18
2023-12-14T22:37:18.374Z,0.27
2023-12-14T22:39:48.667Z,0.25
2023-12-14T22:42:16.361Z,0.34
2023-12-14T22:44:44.220Z,0.30
2023-12-14T22:47:13.461Z,0.04
2023-12-14T22:49:44.229Z,0.10
2023-12-14T22:52:12.177Z,0.16
2023-12-14T22:54:40.855Z,0.30
2023-12-14T22:57:09.046Z,0.39
2023-12-14T22:59:40.316Z,0.43
2023-12-14T23:02:08.259Z,0.36
2023-12-14T23:04:36.246Z,0.23
2023-12-14T23:07:06.811Z,0.15
2023-12-14T23:09:34.808Z,0.08
2023-12-14T23:12:02.750Z,0.22
2023-12-14T23:14:30.562Z,0.25
2023-12-14T23:16:58.472Z,0.29
2023-12-14T23:19:26.926Z,0.24
2023-12-14T23:21:55.401Z,0.03
2023-12-14T23:24:26.219Z,0.06
2023-12-14T23:26:54.197Z,0.06
2023-12-14T23:29:22.166Z,0.07
2023-12-14T23:31:50.125Z,0.09
2023-12-14T23:34:18.270Z,0.09
2023-12-14T23:36:46.119Z,-0.08
2023-12-14T23:39:14.135Z,0.05
2023-12-14T23:41:44.973Z,0.16
2023-12-14T23:44:13.700Z,0.01
2023-12-14T23:46:42.105Z,0.06
2023-12-14T23:49:10.238Z,0.15
2023-12-14T23:51:38.145Z,0.17
2023-12-14T23:54:06.526Z,0.09
2023-12-14T23:56:34.522Z,0.26
2023-12-14T23:59:05.269Z,0.16
